createdAt,value
2019-04-10T00:03:32.245Z,2
2019-04-10T00:08:26.591Z,1.9
2019-04-10T00:13:29.103Z,1.8
2019-04-10T00:18:31.855Z,1.7
2019-04-10T00:23:33.981Z,1.6
2019-04-10T00:28:36.789Z,1.5
2019-04-10T00:33:38.939Z,1.4
2019-04-10T00:38:42.074Z,1.4
2019-04-10T00:43:43.838Z,1.3
2019-04-10T00:48:46.625Z,1.3
2019-04-10T00:53:49.640Z,1.3
2019-04-10T00:58:51.259Z,1.2
2019-04-10T01:03:53.948Z,1.2
2019-04-10T01:08:57.170Z,1.1
2019-04-10T01:13:59.098Z,1
2019-04-10T01:19:01.714Z,1
2019-04-10T01:24:03.680Z,0.9
2019-04-10T01:29:06.093Z,0.9
2019-04-10T01:34:09.422Z,0.8
2019-04-10T01:39:11.269Z,0.8
2019-04-10T01:44:13.381Z,0.7
2019-04-10T01:49:15.912Z,0.6
2019-04-10T01:54:19.281Z,0.6
2019-04-10T01:59:21.482Z,0.6
2019-04-10T02:04:23.211Z,0.5
2019-04-10T02:09:25.716Z,0.5
2019-04-10T02:14:28.446Z,0.4
2019-04-10T02:19:30.508Z,0.3
2019-04-10T02:24:33.360Z,0.3
2019-04-10T02:29:35.715Z,0.4
2019-04-10T02:34:39.270Z,0.3
2019-04-10T02:39:46.161Z,0.2
2019-04-10T02:44:43.977Z,0.3
2019-04-10T02:49:46.853Z,0.3
2019-04-10T02:54:48.990Z,0.4
2019-04-10T02:59:51.125Z,0.5
2019-04-10T03:04:53.256Z,0.7
2019-04-10T03:10:05.606Z,0.8
2019-04-10T03:14:59.103Z,1
2019-04-10T03:20:00.198Z,1.2
2019-04-10T03:25:02.626Z,1.3
2019-04-10T03:30:05.746Z,1.4
2019-04-10T03:35:08.154Z,1.6
2019-04-10T03:40:11.119Z,1.7
2019-04-10T03:45:12.275Z,1.9
2019-04-10T03:50:14.734Z,2
2019-04-10T03:55:17.186Z,2.2
2019-04-10T04:00:20.931Z,2.3
2019-04-10T04:05:22.444Z,2.5
2019-04-10T04:10:24.885Z,2.6
2019-04-10T04:15:27.909Z,2.6
2019-04-10T04:20:29.496Z,2.8
2019-04-10T04:25:32.466Z,2.9
2019-04-10T04:30:34.502Z,2.9
2019-04-10T04:35:36.934Z,3.1
2019-04-10T04:40:39.345Z,3.1
2019-04-10T04:45:42.189Z,3.2
2019-04-10T04:50:44.270Z,3.3
2019-04-10T04:55:47.010Z,3.3
2019-04-10T05:00:50.672Z,3.3
2019-04-10T05:05:51.968Z,3.3
2019-04-10T05:10:54.326Z,3.3
2019-04-10T05:15:57.520Z,3.3
2019-04-10T05:20:59.062Z,3.5
2019-04-10T05:26:02.433Z,3.6
2019-04-10T05:31:03.999Z,3.8
2019-04-10T05:36:06.980Z,3.8
2019-04-10T05:41:09.189Z,3.8
2019-04-10T05:46:12.351Z,4
2019-04-10T05:51:14.988Z,4.2
2019-04-10T05:56:16.361Z,4.4
2019-04-10T06:01:29.845Z,4.5
2019-04-10T06:06:22.191Z,4.6
2019-04-10T06:11:24.650Z,4.7
2019-04-10T06:16:26.218Z,4.8
2019-04-10T06:21:29.792Z,4.9
2019-04-10T06:26:32.469Z,4.9
2019-04-10T06:31:33.595Z,5
2019-04-10T06:36:36.069Z,5
2019-04-10T06:41:39.070Z,5
2019-04-10T06:46:41.785Z,5
2019-04-10T06:51:43.448Z,5.1
2019-04-10T06:56:48.181Z,5.3
2019-04-10T07:01:52.758Z,5.4
2019-04-10T07:06:58.522Z,5.6
2019-04-10T07:11:58.208Z,5.7
2019-04-10T07:17:00.504Z,5.8
2019-04-10T07:21:59.996Z,6
2019-04-10T07:27:03.342Z,6.3
2019-04-10T07:32:07.652Z,6.5
2019-04-10T07:37:05.801Z,6.7
2019-04-10T07:42:08.334Z,7
2019-04-10T07:47:11.099Z,7.4
2019-04-10T07:52:12.905Z,7.6
2019-04-10T07:57:16.029Z,7.8
2019-04-10T08:02:18.729Z,8
2019-04-10T08:07:29.349Z,8.1
2019-04-10T08:12:23.323Z,8.2
2019-04-10T08:17:25.251Z,8.5
2019-04-10T08:22:28.664Z,8.7
2019-04-10T08:27:30.127Z,9.2
2019-04-10T08:32:40.372Z,9.7
2019-04-10T08:37:35.140Z,10.6
2019-04-10T08:42:37.846Z,11.5
2019-04-10T08:47:40.010Z,12.3
2019-04-10T08:52:42.714Z,12.6
2019-04-10T08:57:45.865Z,13.3
2019-04-10T09:02:48.501Z,13.6
2019-04-10T09:07:50.638Z,14
2019-04-10T09:12:54.483Z,14
2019-04-10T09:17:55.673Z,14
2019-04-10T09:23:15.332Z,14.1
2019-04-10T09:28:00.154Z,14.8
2019-04-10T09:33:14.572Z,15.2
2019-04-10T09:38:04.576Z,16
2019-04-10T09:43:07.298Z,16.9
2019-04-10T09:48:10.604Z,17.4
2019-04-10T09:53:12.795Z,18.4
2019-04-10T09:58:14.344Z,19.3
2019-04-10T10:03:17.339Z,20
2019-04-10T10:13:23.523Z,20.6
2019-04-10T10:18:24.222Z,20.8
2019-04-10T10:23:27.593Z,21.2
2019-04-10T10:28:29.235Z,24.2
2019-04-10T10:38:34.847Z,29.7
2019-04-10T10:43:36.594Z,30.4
2019-04-10T10:48:39.904Z,29.6
2019-04-10T10:53:41.414Z,28.7
2019-04-10T10:58:43.968Z,29.2
2019-04-10T11:03:46.730Z,30.4
2019-04-10T11:08:48.777Z,30.2
2019-04-10T11:13:51.280Z,30.5
2019-04-10T11:18:55.028Z,32.1
2019-04-10T11:23:56.160Z,30.8
2019-04-10T11:28:58.604Z,30
2019-04-10T11:34:02.763Z,30.2
2019-04-10T11:39:11.784Z,29.3
2019-04-10T11:44:08.074Z,30
2019-04-10T11:54:14.277Z,27.8
2019-04-10T11:59:14.419Z,29.2
2019-04-10T12:04:17.198Z,30.9
2019-04-10T12:09:55.141Z,31.3
2019-04-10T12:14:21.550Z,30.5
2019-04-10T12:19:25.007Z,29.4
2019-04-10T12:24:26.063Z,29.4
2019-04-10T12:29:28.936Z,28.5
2019-04-10T12:34:30.571Z,28
2019-04-10T12:39:33.204Z,27.3
2019-04-10T12:44:35.959Z,26.2
2019-04-10T12:49:37.971Z,24.6
2019-04-10T12:54:40.581Z,23.1
2019-04-10T12:59:43.632Z,21.9
2019-04-10T13:04:45.323Z,20.9
2019-04-10T13:09:48.487Z,19.8
2019-04-10T13:24:55.366Z,17.6
2019-04-10T13:29:57.617Z,17
2019-04-10T13:35:00.095Z,16.6
2019-04-10T13:40:03.496Z,16.3
2019-04-10T13:45:05.164Z,16.3
2019-04-10T13:50:08.552Z,16.2
2019-04-10T13:55:10.290Z,16.1
2019-04-10T14:00:13.364Z,16
2019-04-10T14:05:15.623Z,16
2019-04-10T14:10:17.284Z,15.9
2019-04-10T14:15:20.186Z,15.7
2019-04-10T14:20:23.529Z,15.5
2019-04-10T14:25:25.500Z,15.5
2019-04-10T14:30:27.198Z,15.4
2019-04-10T14:35:29.572Z,15.3
2019-04-10T14:40:32.491Z,15.2
2019-04-10T14:45:35.409Z,15
2019-04-10T14:55:39.777Z,14.6
2019-04-10T15:00:41.922Z,14.3
2019-04-10T15:05:49.756Z,14.2
2019-04-10T15:10:46.799Z,14
2019-04-10T15:15:50.281Z,13.7
2019-04-10T15:20:51.751Z,13.5
2019-04-10T15:25:54.203Z,13.3
2019-04-10T15:30:57.171Z,13.2
2019-04-10T15:41:01.573Z,12.7
2019-04-10T15:46:04.268Z,12.5
2019-04-10T15:51:07.438Z,12.3
2019-04-10T15:56:09.636Z,12
2019-04-10T16:01:11.819Z,11.8
2019-04-10T16:06:13.964Z,11.5
2019-04-10T16:11:17.378Z,11.2
2019-04-10T16:16:19.078Z,11
2019-04-10T16:21:21.417Z,10.9
2019-04-10T16:26:23.833Z,10.7
2019-04-10T16:31:26.141Z,10.6
2019-04-10T16:36:29.663Z,10.4
2019-04-10T16:41:31.197Z,10.1
2019-04-10T16:46:33.471Z,9.9
2019-04-10T16:51:36.550Z,9.6
2019-04-10T16:56:38.727Z,9.4
2019-04-10T17:01:41.007Z,9.2
2019-04-10T17:11:45.813Z,8.8
2019-04-10T17:16:48.234Z,8.7
2019-04-10T17:21:50.681Z,8.5
2019-04-10T17:26:53.156Z,8.3
2019-04-10T17:31:55.600Z,8.2
2019-04-10T17:36:59.170Z,8
2019-04-10T17:47:04.598Z,7.6
2019-04-10T17:52:06.285Z,7.3
2019-04-10T17:57:08.633Z,7.2
2019-04-10T18:02:11.577Z,6.9
2019-04-10T18:07:12.909Z,6.7
2019-04-10T18:12:16.203Z,6.5
2019-04-10T18:17:18.553Z,6.2
2019-04-10T18:22:20.619Z,6
2019-04-10T18:32:25.474Z,5.5
2019-04-10T18:37:28.499Z,5.3
2019-04-10T18:42:30.852Z,5.1
2019-04-10T18:47:34.922Z,4.9
2019-04-10T18:52:35.112Z,4.8
2019-04-10T18:57:37.487Z,4.6
2019-04-10T19:02:41.077Z,4.5
2019-04-10T19:12:45.324Z,4.2
2019-04-10T19:17:47.378Z,4.1
2019-04-10T19:22:50.642Z,4.1
2019-04-10T19:27:52.692Z,4
2019-04-10T19:32:54.652Z,3.9
2019-04-10T19:37:57.087Z,3.9
2019-04-10T19:42:59.938Z,3.8
2019-04-10T19:48:03.153Z,3.7
2019-04-10T19:53:04.773Z,3.5
2019-04-10T19:58:07.997Z,3.4
2019-04-10T20:03:09.440Z,3.2
2019-04-10T20:08:13.013Z,3.1
2019-04-10T20:13:14.516Z,3
2019-04-10T20:18:16.959Z,2.9
2019-04-10T20:23:19.478Z,2.7
2019-04-10T20:28:22.752Z,2.6
2019-04-10T20:33:24.962Z,2.5
2019-04-10T20:38:27.321Z,2.3
2019-04-10T20:43:30.603Z,2.3
2019-04-10T20:53:34.070Z,2.1
2019-04-10T20:58:36.601Z,2
2019-04-10T21:03:40.187Z,1.9
2019-04-10T21:08:42.437Z,1.7
2019-04-10T21:13:44.626Z,1.6
2019-04-10T21:18:46.342Z,1.5
2019-04-10T21:23:49.020Z,1.4
2019-04-10T21:28:51.610Z,1.3
2019-04-10T21:33:54.696Z,1.2
2019-04-10T21:38:56.666Z,1.2
2019-04-10T21:43:58.630Z,1.2
2019-04-10T21:49:01.561Z,1.1
2019-04-10T21:54:04.331Z,1.1
2019-04-10T21:59:06.065Z,1
2019-04-10T22:04:08.522Z,0.9
2019-04-10T22:09:10.988Z,0.8
2019-04-10T22:14:13.375Z,0.8
2019-04-10T22:19:16.710Z,0.7
2019-04-10T22:24:18.339Z,0.7
2019-04-10T22:29:21.748Z,0.8
2019-04-10T22:34:23.394Z,0.8
2019-04-10T22:39:25.676Z,0.8
2019-04-10T22:44:36.482Z,0.8
2019-04-10T22:49:30.812Z,0.8
2019-04-10T22:54:33.061Z,0.9
2019-04-10T22:59:35.492Z,0.9
2019-04-10T23:04:38.913Z,0.8
2019-04-10T23:09:40.609Z,0.8
2019-04-10T23:14:42.871Z,0.9
2019-04-10T23:19:45.391Z,0.9
2019-04-10T23:24:47.808Z,0.9
2019-04-10T23:29:50.627Z,0.8
2019-04-10T23:34:53.053Z,0.8
2019-04-10T23:39:55.170Z,0.9
2019-04-10T23:44:57.676Z,0.8
2019-04-10T23:50:00.126Z,0.7
2019-04-10T23:55:03.861Z,0.7
